KBIF/BIF METAR and TAF weather

Enter ICAO airport designator
Station Type Date Time Source
KBIF METAR 2019/04/19 21:58 UTC NOAA

KBIF 192158Z AUTO 14004KT 10SM CLR 27/M06 A3008 RMK AO2 SLPNO T02741057 $


Station Type Date Time Source
KBIF Decoded METAR 2019/04/19 21:58 UTC NOAA

Biggs Army Air Field / Ft. Bliss, TX, United States (KBIF) 31-51N 106-23W
Apr 19, 2019 - 05:58 PM EDT / 2019.04.19 2158 UTC
Wind: from the SE (140 degrees) at 5 MPH (4 KT):0
Visibility: 10 mile(s):0
Sky conditions: clear
Temperature: 81.3 F (27.4 C)
Dew Point: 21.7 F (-5.7 C)
Relative Humidity: 10%
Pressure (altimeter): 30.08 in. Hg (1018 hPa)
ob: KBIF 192158Z AUTO 14004KT 10SM CLR 27/M06 A3008 RMK AO2 SLPNO T02741057
cycle: 22

Station Type Date Time Source
KBIF TAF 2019/04/19 22:02 UTC NOAA

TAF KBIF 192202Z 1922/2104 25009KT 9999 SKC QNH3006INS
BECMG 2001/2002 VRB06KT 9999 SKC QNH3002INS
BECMG 2015/2016 15012KT 9999 FEW170 QNH3003INS
BECMG 2017/2018 23015G25KT 9999 FEW150 520009 QNH2983INS
TEMPO 2021/2101 23015G30KT 530009 TX32/2021Z TN07/2012Z

Example: see airport list